Time;durP1;ratioP1;P1;durP2;ratioP2;P2;SDS_P1;SDS_P2;PMS_P1;PMS_P2;Temp;Humidity;BMP_temperature;BMP_pressure;BME280_temperature;BME280_humidity;BME280_pressure;Samples;Min_cycle;Max_cycle;Signal;HPM_P1;HPM_P2
2022/06/21 00:00:29;;;;;;;;;;;;;;;17.00;57.05;101874.69;5046011;28;20560;-74
2022/06/21 00:02:59;;;;;;;;;;;;;;;17.00;57.69;101880.06;5047016;28;20299;-74
2022/06/21 00:05:29;;;;;;;;;;;;;;;16.98;57.39;101873.84;5045668;28;19917;-74
2022/06/21 00:07:56;;;;;;;;;;;;;;;16.93;57.89;101862.41;5042182;28;19925;-74
2022/06/21 00:10:22;;;;;;;;;;;;;;;16.92;57.59;101866.91;5032803;28;19925;-74
2022/06/21 00:12:48;;;;;;;;;;;;;;;16.90;57.75;101870.53;5036588;28;19971;-74
2022/06/21 00:15:15;;;;;;;;;;;;;;;16.88;57.33;101861.66;5037737;28;19913;-74
2022/06/21 00:17:44;;;;;;;;;;;;;;;16.86;57.77;101858.13;5037665;28;20296;-75
2022/06/21 00:20:13;;;;;;;;;;;;;;;16.85;57.95;101848.34;5041650;28;19925;-74
2022/06/21 00:22:39;;;;;;;;;;;;;;;16.83;57.98;101859.09;5032149;28;20390;-74
2022/06/21 00:25:15;;;;;;;;;;;;;;;16.82;57.98;101854.66;5037982;28;20562;-74
2022/06/21 00:27:41;;;;;;;;;;;;;;;16.78;58.18;101848.53;5036963;28;20344;-74
2022/06/21 00:30:07;;;;;;;;;;;;;;;16.77;57.95;101854.84;5029537;28;20349;-74
2022/06/21 00:32:33;;;;;;;;;;;;;;;16.74;58.53;101849.56;5033898;28;19927;-73
2022/06/21 00:34:59;;;;;;;;;;;;;;;16.72;58.37;101854.06;5043952;28;19924;-73
2022/06/21 00:37:25;;;;;;;;;;;;;;;16.70;57.46;101855.94;5027981;28;19917;-73
2022/06/21 00:39:51;;;;;;;;;;;;;;;16.68;58.43;101846.19;5043291;28;19928;-74
2022/06/21 00:42:22;;;;;;;;;;;;;;;16.69;58.59;101848.81;5028780;28;19972;-74
2022/06/21 00:45:08;;;;;;;;;;;;;;;16.68;58.59;101844.38;5034647;28;19920;-74
2022/06/21 00:47:39;;;;;;;;;;;;;;;16.66;58.07;101849.78;5046034;28;19924;-74
2022/06/21 00:50:12;;;;;;;;;;;;;;;16.66;58.50;101843.56;5041960;28;19918;-74
2022/06/21 00:52:42;;;;;;;;;;;;;;;16.65;58.66;101844.50;5018668;28;19913;-74
2022/06/21 00:55:15;;;;;;;;;;;;;;;16.60;58.47;101844.63;5030804;28;19921;-73
2022/06/21 00:57:45;;;;;;;;;;;;;;;16.58;58.62;101838.41;5027117;28;19964;-73
2022/06/21 01:00:29;;;;;;;;;;;;;;;16.58;58.33;101829.53;5016189;28;20388;-74
2022/06/21 01:02:56;;;;;;;;;;;;;;;16.57;59.03;101825.09;5021664;28;19917;-74
2022/06/21 01:05:23;;;;;;;;;;;;;;;16.56;58.69;101826.00;5029503;28;19920;-74
2022/06/21 01:07:53;;;;;;;;;;;;;;;16.53;58.19;101823.44;5029032;28;20291;-74
2022/06/21 01:10:19;;;;;;;;;;;;;;;16.50;58.52;101814.56;5031937;28;19963;-74
2022/06/21 01:12:47;;;;;;;;;;;;;;;16.49;58.85;101811.97;5019093;28;20046;-74
2022/06/21 01:15:17;;;;;;;;;;;;;;;16.48;58.61;101812.88;5013809;28;19987;-74
2022/06/21 01:17:44;;;;;;;;;;;;;;;16.44;58.74;101817.44;5026996;28;19917;-75
2022/06/21 01:20:15;;;;;;;;;;;;;;;16.42;58.99;101815.72;5032714;28;19932;-75
2022/06/21 01:25:48;;;;;;;;;;;;;;;16.41;59.72;101814.84;5074579;28;20325;-74
2022/06/21 01:28:15;;;;;;;;;;;;;;;16.38;59.63;101812.25;5052512;28;20007;-74
2022/06/21 01:30:45;;;;;;;;;;;;;;;16.36;59.06;101819.44;5053563;28;19924;-74
2022/06/21 01:33:13;;;;;;;;;;;;;;;16.33;59.52;101824.88;5050940;28;19917;-74
2022/06/21 01:35:41;;;;;;;;;;;;;;;16.30;59.08;101825.00;5061758;28;19916;-74
2022/06/21 01:38:09;;;;;;;;;;;;;;;16.25;59.61;101817.09;5045647;28;20347;-74
2022/06/21 01:40:39;;;;;;;;;;;;;;;16.23;59.33;101826.06;5049267;28;19917;-74
2022/06/21 01:43:09;;;;;;;;;;;;;;;16.21;59.64;101827.91;5063335;28;19921;-74
2022/06/21 01:45:38;;;;;;;;;;;;;;;16.15;59.41;101829.84;5056247;28;19942;-74
2022/06/21 01:50:48;;;;;;;;;;;;;;;16.12;59.35;101837.91;5085836;27;20390;-74
2022/06/21 01:53:17;;;;;;;;;;;;;;;16.11;59.62;101820.16;5080592;28;20335;-75
2022/06/21 01:55:45;;;;;;;;;;;;;;;16.10;59.57;101821.06;5089642;28;19920;-74
2022/06/21 01:58:16;;;;;;;;;;;;;;;16.08;59.73;101817.56;5095808;28;19917;-75
2022/06/21 02:00:45;;;;;;;;;;;;;;;16.06;59.35;101822.06;5088622;28;19959;-75
2022/06/21 02:03:15;;;;;;;;;;;;;;;16.03;59.82;101822.16;5079753;28;19916;-74
2022/06/21 02:05:45;;;;;;;;;;;;;;;16.02;59.79;101831.09;5084092;28;19917;-74
2022/06/21 02:08:15;;;;;;;;;;;;;;;16.00;59.42;101832.94;5091085;28;20347;-75
2022/06/21 02:10:43;;;;;;;;;;;;;;;15.97;59.29;101831.19;5088766;28;19920;-74
2022/06/21 02:15:51;;;;;;;;;;;;;;;15.95;60.04;101829.47;5095058;27;19920;-75
2022/06/21 02:18:18;;;;;;;;;;;;;;;15.92;60.04;101827.78;5074023;28;19916;-75
2022/06/21 02:21:03;;;;;;;;;;;;;;;15.91;59.39;101833.16;5067853;28;19962;-74
2022/06/21 02:23:29;;;;;;;;;;;;;;;15.90;60.29;101812.69;5079000;28;20289;-74
2022/06/21 02:25:56;;;;;;;;;;;;;;;15.88;59.93;101806.53;5085823;28;19939;-75
2022/06/21 02:28:23;;;;;;;;;;;;;;;15.85;59.82;101803.03;5078292;28;19917;-75
2022/06/21 02:30:51;;;;;;;;;;;;;;;15.82;60.22;101802.22;5084120;28;19923;-76
2022/06/21 02:33:19;;;;;;;;;;;;;;;15.81;60.37;101797.75;5081743;28;19924;-75
2022/06/21 02:35:48;;;;;;;;;;;;;;;15.78;59.92;101801.41;5067985;28;19971;-75
2022/06/21 02:38:34;;;;;;;;;;;;;;;15.76;60.40;101797.00;5071149;28;19917;-75
2022/06/21 02:41:03;;;;;;;;;;;;;;;15.73;61.06;101776.59;5078726;28;19927;-74
2022/06/21 02:43:34;;;;;;;;;;;;;;;15.74;60.37;101772.13;5078913;28;19921;-74
2022/06/21 02:46:04;;;;;;;;;;;;;;;15.70;60.51;101776.66;5072771;28;21594;-74
2022/06/21 02:48:34;;;;;;;;;;;;;;;15.66;60.81;101780.34;5076986;28;20298;-74
2022/06/21 02:51:05;;;;;;;;;;;;;;;15.66;60.86;101772.31;5074249;28;19963;-75
2022/06/21 02:53:41;;;;;;;;;;;;;;;15.66;60.60;101759.88;5082213;28;19920;-75
2022/06/21 02:56:10;;;;;;;;;;;;;;;15.63;60.40;101746.56;5081161;28;20015;-75
2022/06/21 02:58:39;;;;;;;;;;;;;;;15.60;60.52;101743.09;5071968;28;19970;-74
2022/06/21 03:01:10;;;;;;;;;;;;;;;15.55;60.24;101742.34;5074235;28;19924;-74
2022/06/21 03:03:36;;;;;;;;;;;;;;;15.52;60.31;101748.66;5081421;28;19924;-74
2022/06/21 03:06:05;;;;;;;;;;;;;;;15.51;60.62;101763.81;5083484;28;19923;-74
2022/06/21 03:08:32;;;;;;;;;;;;;;;15.52;60.99;101762.00;5080885;28;20394;-75
2022/06/21 03:10:59;;;;;;;;;;;;;;;15.52;60.91;101760.19;5074691;28;19923;-74
2022/06/21 03:13:29;;;;;;;;;;;;;;;15.55;60.76;101761.91;5078668;28;20588;-74
2022/06/21 03:15:57;;;;;;;;;;;;;;;15.54;60.49;101762.84;5094492;28;19949;-75
2022/06/21 03:18:24;;;;;;;;;;;;;;;15.52;60.17;101773.56;5098933;28;19922;-75
2022/06/21 03:20:51;;;;;;;;;;;;;;;15.48;60.25;101779.91;5097963;28;19924;-75
2022/06/21 03:23:18;;;;;;;;;;;;;;;15.49;60.26;101764.78;5095105;28;20019;-75
2022/06/21 03:25:46;;;;;;;;;;;;;;;15.49;60.34;101762.97;5094635;28;19916;-75
2022/06/21 03:28:33;;;;;;;;;;;;;;;15.46;59.98;101765.69;5085197;28;20007;-74
2022/06/21 03:31:18;;;;;;;;;;;;;;;15.42;59.93;101772.03;5066383;28;19939;-74
2022/06/21 03:33:47;;;;;;;;;;;;;;;15.41;60.25;101777.44;5072232;28;20362;-75
2022/06/21 03:36:15;;;;;;;;;;;;;;;15.39;60.48;101772.13;5091720;28;19949;-75
2022/06/21 03:38:44;;;;;;;;;;;;;;;15.40;60.40;101779.22;5084044;28;19927;-75
2022/06/21 03:41:43;;;;;;;;;;;;;;;15.40;60.48;101768.53;5084691;28;19962;-75
2022/06/21 03:44:00;;;;;;;;;;;;;;;15.41;60.34;101759.59;5084924;28;19927;-75
2022/06/21 03:46:31;;;;;;;;;;;;;;;15.41;60.64;101754.25;5072600;28;19916;-75
2022/06/21 03:48:59;;;;;;;;;;;;;;;15.42;60.27;101749.81;5075635;28;21518;-75
2022/06/21 03:51:28;;;;;;;;;;;;;;;15.40;60.43;101744.50;5085546;28;20439;-75
2022/06/21 03:56:51;;;;;;;;;;;;;;;15.34;60.23;101734.00;5081069;28;19924;-74
2022/06/21 03:59:31;;;;;;;;;;;;;;;15.30;60.35;101740.31;5082170;28;19939;-74
2022/06/21 04:02:16;;;;;;;;;;;;;;;15.26;60.79;101738.66;5046931;28;20382;-74
2022/06/21 04:04:53;;;;;;;;;;;;;;;15.20;60.53;101735.22;5046553;28;19925;-74
2022/06/21 04:07:39;;;;;;;;;;;;;;;15.12;60.90;101739.00;5056253;28;19952;-74
2022/06/21 04:10:08;;;;;;;;;;;;;;;15.08;61.21;101734.63;5062487;28;19985;-74
2022/06/21 04:12:40;;;;;;;;;;;;;;;15.03;61.29;101732.09;5066270;28;19967;-74
2022/06/21 04:23:13;;;;;;;;;;;;;;;14.99;61.47;101709.03;5089420;28;19985;-74
2022/06/21 04:25:44;;;;;;;;;;;;;;;14.98;61.29;101710.84;5083198;28;19923;-74
2022/06/21 04:28:12;;;;;;;;;;;;;;;14.95;61.35;101707.38;5090234;28;20027;-74
2022/06/21 04:30:43;;;;;;;;;;;;;;;14.94;61.22;101701.19;5084690;28;19959;-74
2022/06/21 04:35:50;;;;;;;;;;;;;;;14.93;61.61;101710.09;5048790;28;19925;-74
2022/06/21 04:38:23;;;;;;;;;;;;;;;14.95;61.70;101702.91;5050348;28;19960;-74
2022/06/21 04:40:54;;;;;;;;;;;;;;;14.99;61.50;101709.03;5048357;28;19928;-74
2022/06/21 04:43:24;;;;;;;;;;;;;;;15.00;61.66;101709.03;5048243;28;19924;-74
2022/06/21 04:45:54;;;;;;;;;;;;;;;15.07;61.77;101717.75;5046757;28;19983;-74
2022/06/21 04:48:25;;;;;;;;;;;;;;;15.12;62.18;101707.84;5046345;28;19921;-74
2022/06/21 04:50:55;;;;;;;;;;;;;;;15.18;61.80;101705.00;5047048;28;19923;-74
2022/06/21 04:53:41;;;;;;;;;;;;;;;15.26;61.83;101709.28;5048178;28;19956;-74
2022/06/21 04:56:12;;;;;;;;;;;;;;;15.31;61.72;101699.34;5051706;28;19971;-74
2022/06/21 04:58:39;;;;;;;;;;;;;;;15.34;61.36;101696.63;5052978;28;19916;-73
2022/06/21 05:01:29;;;;;;;;;;;;;;;15.40;61.31;101707.09;5040342;28;20374;-74
2022/06/21 05:03:52;;;;;;;;;;;;;;;15.45;61.63;101705.22;5047051;28;20005;-74
2022/06/21 05:06:18;;;;;;;;;;;;;;;15.50;62.06;101713.09;5050444;28;19920;-73
2022/06/21 05:08:47;;;;;;;;;;;;;;;15.57;61.43;101721.84;5063996;28;19912;-74
2022/06/21 05:11:13;;;;;;;;;;;;;;;15.60;62.32;101714.63;5065420;28;20441;-74
2022/06/21 05:13:42;;;;;;;;;;;;;;;15.69;61.75;101722.38;5045976;28;19929;-74
2022/06/21 05:16:13;;;;;;;;;;;;;;;15.77;61.69;101727.50;5048160;28;19919;-74
2022/06/21 05:18:41;;;;;;;;;;;;;;;15.81;62.61;101721.16;5053058;28;19912;-74
2022/06/21 05:21:10;;;;;;;;;;;;;;;15.88;61.81;101721.03;5064488;28;19913;-75
2022/06/21 05:23:36;;;;;;;;;;;;;;;15.94;61.36;101723.53;5054074;28;20394;-74
2022/06/21 05:26:04;;;;;;;;;;;;;;;15.93;62.68;101729.78;5045134;28;19925;-73
2022/06/21 05:31:14;;;;;;;;;;;;;;;16.05;62.94;101729.44;5060682;28;19917;-74
2022/06/21 05:33:49;;;;;;;;;;;;;;;16.12;62.28;101730.97;5042666;28;20028;-73
2022/06/21 05:36:22;;;;;;;;;;;;;;;16.18;62.36;101736.16;5054522;28;19917;-74
2022/06/21 05:38:54;;;;;;;;;;;;;;;16.25;62.24;101723.50;5048426;28;20298;-73
2022/06/21 05:41:40;;;;;;;;;;;;;;;16.32;62.02;101729.53;5033911;28;19917;-73
2022/06/21 05:44:18;;;;;;;;;;;;;;;16.34;62.20;101733.03;5048350;28;19925;-73
2022/06/21 05:46:46;;;;;;;;;;;;;;;16.39;62.06;101736.44;5041882;28;19921;-74
2022/06/21 05:49:19;;;;;;;;;;;;;;;16.46;62.10;101735.34;5044617;28;19928;-74
2022/06/21 05:51:45;;;;;;;;;;;;;;;16.52;61.69;101738.75;5039452;28;20319;-74
2022/06/21 05:54:13;;;;;;;;;;;;;;;16.57;61.93;101742.16;5045402;28;19929;-74
2022/06/21 05:56:39;;;;;;;;;;;;;;;16.65;61.14;101743.69;5050591;28;20405;-74
2022/06/21 05:59:07;;;;;;;;;;;;;;;16.72;60.99;101741.66;5050782;28;20386;-74
2022/06/21 06:01:39;;;;;;;;;;;;;;;16.77;61.31;101737.06;5044427;28;20294;-74
2022/06/21 06:04:15;;;;;;;;;;;;;;;16.85;60.62;101752.00;5051074;28;19924;-74
2022/06/21 06:06:43;;;;;;;;;;;;;;;16.90;60.66;101747.41;5045920;28;19920;-74
2022/06/21 06:09:13;;;;;;;;;;;;;;;16.94;60.76;101746.41;5042530;28;19925;-74
2022/06/21 06:12:01;;;;;;;;;;;;;;;16.99;61.20;101739.09;5039236;28;19917;-74
2022/06/21 06:14:37;;;;;;;;;;;;;;;17.04;61.14;101749.66;5037913;28;19917;-74
2022/06/21 06:17:07;;;;;;;;;;;;;;;17.09;61.43;101743.19;5048207;28;19921;-74
2022/06/21 06:19:38;;;;;;;;;;;;;;;17.14;60.72;101753.78;5040847;28;20473;-74
2022/06/21 06:24:48;;;;;;;;;;;;;;;17.17;60.49;101774.22;5089786;27;19920;-73
2022/06/21 06:27:33;;;;;;;;;;;;;;;17.12;60.10;101777.03;5082687;28;19917;-74
2022/06/21 06:30:02;;;;;;;;;;;;;;;17.22;60.03;101773.16;5073502;28;19940;-73
2022/06/21 06:32:32;;;;;;;;;;;;;;;17.22;60.00;101780.28;5047838;28;19924;-73
2022/06/21 06:34:59;;;;;;;;;;;;;;;17.28;60.24;101789.00;5053989;28;19925;-73
2022/06/21 06:37:30;;;;;;;;;;;;;;;17.38;59.81;101789.56;5055440;28;19964;-73
2022/06/21 06:39:56;;;;;;;;;;;;;;;17.47;59.49;101783.03;5055719;28;19917;-73
2022/06/21 06:42:25;;;;;;;;;;;;;;;17.51;59.89;101786.47;5051435;28;20011;-74
2022/06/21 06:44:55;;;;;;;;;;;;;;;17.53;59.10;101798.88;5051705;28;20031;-74
2022/06/21 06:50:03;;;;;;;;;;;;;;;17.65;58.78;101802.97;5069246;28;19917;-74
2022/06/21 06:52:32;;;;;;;;;;;;;;;17.73;58.49;101792.88;5044805;28;19924;-74
2022/06/21 06:55:18;;;;;;;;;;;;;;;17.79;58.35;101795.31;5042989;28;19931;-74
2022/06/21 06:57:47;;;;;;;;;;;;;;;17.87;58.27;101795.06;5037084;28;20643;-74
2022/06/21 07:02:53;;;;;;;;;;;;;;;18.13;57.63;101797.75;5084291;28;19932;-74
2022/06/21 07:05:39;;;;;;;;;;;;;;;18.19;57.37;101789.47;5062994;28;19924;-76
2022/06/21 07:10:44;;;;;;;;;;;;;;;18.29;57.44;101788.19;5082088;27;1873052;-74
2022/06/21 07:13:10;;;;;;;;;;;;;;;18.48;57.60;101795.56;5136566;27;20007;-74
2022/06/21 07:15:39;;;;;;;;;;;;;;;18.60;57.52;101784.34;5135470;27;20357;-74
2022/06/21 07:18:11;;;;;;;;;;;;;;;18.77;56.21;101789.06;5138346;27;19969;-73
2022/06/21 07:20:40;;;;;;;;;;;;;;;18.89;56.32;101798.44;5129767;27;19916;-75
2022/06/21 07:23:12;;;;;;;;;;;;;;;19.00;56.25;101789.97;5138930;27;19919;-74
2022/06/21 07:25:41;;;;;;;;;;;;;;;19.16;55.41;101787.56;5134538;27;19911;-75
2022/06/21 07:28:28;;;;;;;;;;;;;;;19.26;55.18;101785.38;5141916;27;19915;-74
2022/06/21 07:30:55;;;;;;;;;;;;;;;19.32;55.06;101783.28;5130837;27;20744;-73
2022/06/21 07:33:25;;;;;;;;;;;;;;;19.47;54.98;101789.81;5134206;27;19916;-74
2022/06/21 07:35:56;;;;;;;;;;;;;;;19.49;53.94;101787.97;5139287;27;19915;-74
2022/06/21 07:38:27;;;;;;;;;;;;;;;19.54;54.27;101780.56;5140854;27;19915;-74
2022/06/21 07:40:57;;;;;;;;;;;;;;;19.53;53.95;101775.25;5130403;27;20452;-74
2022/06/21 07:43:28;;;;;;;;;;;;;;;19.60;53.66;101771.38;5130674;27;19923;-74
2022/06/21 07:45:55;;;;;;;;;;;;;;;19.61;53.85;101767.72;5127921;27;19912;-73
2022/06/21 07:48:24;;;;;;;;;;;;;;;19.77;53.59;101775.13;5128449;28;19911;-74
2022/06/21 07:50:52;;;;;;;;;;;;;;;19.88;52.75;101764.81;5127514;28;20428;-74
2022/06/21 07:56:00;;;;;;;;;;;;;;;20.13;52.21;101756.50;5083926;27;20282;-73
2022/06/21 07:58:36;;;;;;;;;;;;;;;20.19;51.49;101755.34;5088226;28;19922;-74
2022/06/21 08:06:50;;;;;;;;;;;;;;;20.47;51.03;101754.06;5088038;28;20015;-73
2022/06/21 08:12:13;;;;;;;;;;;;;;;20.64;51.13;101745.19;5087123;28;19923;-75
2022/06/21 08:14:39;;;;;;;;;;;;;;;20.71;51.11;101745.75;5084723;28;19921;-74
2022/06/21 08:17:14;;;;;;;;;;;;;;;20.79;50.09;101749.00;5081953;28;19920;-74
2022/06/21 08:20:00;;;;;;;;;;;;;;;20.89;50.67;101742.19;5088852;28;19916;-74
2022/06/21 08:22:32;;;;;;;;;;;;;;;20.92;48.59;101739.38;5087054;28;19912;-74
2022/06/21 08:25:07;;;;;;;;;;;;;;;20.98;49.04;101741.72;5079229;28;19916;-74
2022/06/21 08:30:28;;;;;;;;;;;;;;;21.09;49.31;101732.25;5088528;27;19913;-73
2022/06/21 08:33:13;;;;;;;;;;;;;;;21.04;48.23;101731.63;5087464;28;20069;-74
2022/06/21 08:35:42;;;;;;;;;;;;;;;21.03;48.83;101724.47;5088560;28;19919;-73
2022/06/21 08:38:11;;;;;;;;;;;;;;;21.03;49.27;101730.72;5084013;28;19917;-73
2022/06/21 08:46:03;;;;;;;;;;;;;;;21.40;49.38;101717.22;5088177;27;19916;-73
2022/06/21 08:48:49;;;;;;;;;;;;;;;21.41;46.20;101719.81;5088518;28;19916;-73
2022/06/21 08:51:26;;;;;;;;;;;;;;;21.49;48.09;101714.88;5087421;28;19948;-73
2022/06/21 08:56:37;;;;;;;;;;;;;;;21.70;49.07;101709.38;5080943;27;21323;-73
2022/06/21 08:59:12;;;;;;;;;;;;;;;21.75;45.88;101712.69;5093011;28;20483;-73
2022/06/21 09:04:24;;;;;;;;;;;;;;;21.94;48.37;101711.69;5049238;28;19917;-73
2022/06/21 09:12:18;;;;;;;;;;;;;;;22.24;45.95;101710.97;5057621;28;20284;-74
2022/06/21 09:14:52;;;;;;;;;;;;;;;22.34;47.13;101705.91;5034121;28;20437;-74
2022/06/21 09:17:23;;;;;;;;;;;;;;;22.51;47.09;101705.88;5037746;28;19936;-74
2022/06/21 09:19:58;;;;;;;;;;;;;;;22.55;44.66;101707.44;5034648;28;19932;-74
2022/06/21 09:22:44;;;;;;;;;;;;;;;22.60;44.82;101693.66;5031873;28;19923;-74
2022/06/21 09:25:15;;;;;;;;;;;;;;;22.70;46.07;101694.03;5035772;28;19918;-74
2022/06/21 09:27:45;;;;;;;;;;;;;;;22.83;45.51;101691.47;5041283;28;19921;-75
2022/06/21 09:35:37;;;;;;;;;;;;;;;22.99;44.77;101684.22;5107809;27;19996;-77
2022/06/21 09:38:23;;;;;;;;;;;;;;;23.07;45.01;101690.03;5098723;28;19920;-77
2022/06/21 09:40:52;;;;;;;;;;;;;;;23.23;44.81;101683.75;5105455;28;19916;-77
2022/06/21 09:43:23;;;;;;;;;;;;;;;23.37;44.86;101693.72;5100415;28;20067;-77
2022/06/21 09:46:02;;;;;;;;;;;;;;;23.56;44.43;101696.16;5103520;28;19963;-77
2022/06/21 09:48:34;;;;;;;;;;;;;;;23.69;44.06;101672.78;5108023;28;19923;-77
2022/06/21 09:51:06;;;;;;;;;;;;;;;23.82;43.86;101678.31;5103108;28;19916;-77
2022/06/21 09:53:45;;;;;;;;;;;;;;;23.97;43.56;101672.94;5096558;28;19927;-77
2022/06/21 09:56:21;;;;;;;;;;;;;;;24.13;43.16;101670.97;5103785;28;20420;-77
2022/06/21 09:59:07;;;;;;;;;;;;;;;24.18;43.62;101671.53;5105278;28;20332;-77
2022/06/21 10:01:38;;;;;;;;;;;;;;;24.19;42.78;101661.59;5103657;28;20462;-77
2022/06/21 10:04:23;;;;;;;;;;;;;;;24.25;43.41;101657.59;5123448;27;20540;-77
2022/06/21 10:06:59;;;;;;;;;;;;;;;24.26;43.27;101665.63;5107141;27;19915;-77
2022/06/21 10:09:45;;;;;;;;;;;;;;;24.32;43.27;101667.06;5104139;28;19919;-77
2022/06/21 10:12:19;;;;;;;;;;;;;;;24.39;43.25;101665.72;5104105;28;19977;-78
2022/06/21 10:17:44;;;;;;;;;;;;;;;24.55;43.02;101655.59;5081307;27;19962;-77
2022/06/21 10:20:23;;;;;;;;;;;;;;;24.65;42.00;101660.41;5084344;28;20376;-78
2022/06/21 10:23:01;;;;;;;;;;;;;;;24.75;41.98;101660.66;5079911;28;19917;-77
2022/06/21 10:25:48;;;;;;;;;;;;;;;24.86;42.22;101650.84;5065469;28;19916;-78
2022/06/21 10:28:21;;;;;;;;;;;;;;;24.97;41.53;101632.97;5060676;28;20469;-78
2022/06/21 10:31:07;;;;;;;;;;;;;;;24.99;40.75;101636.47;5076090;28;19927;-77
2022/06/21 10:41:41;;;;;;;;;;;;;;;25.35;40.01;101632.16;5082827;27;20382;-77
2022/06/21 10:44:19;;;;;;;;;;;;;;;25.43;40.23;101624.38;5066589;28;20271;-78
2022/06/21 10:46:49;;;;;;;;;;;;;;;25.67;39.64;101620.88;5079881;28;19977;-77
2022/06/21 10:52:14;;;;;;;;;;;;;;;25.96;38.30;101617.94;5073499;28;19917;-76
2022/06/21 10:54:50;;;;;;;;;;;;;;;26.03;39.41;101623.75;5075281;28;19916;-77
2022/06/21 10:57:21;;;;;;;;;;;;;;;26.00;39.31;101628.44;5063742;28;19917;-76
2022/06/21 11:03:16;;;;;;;;;;;;;;;25.92;39.12;101636.28;5068128;28;19988;-77
2022/06/21 11:06:02;;;;;;;;;;;;;;;25.95;39.03;101635.19;5075026;28;19963;-76
2022/06/21 11:08:35;;;;;;;;;;;;;;;25.92;37.10;101630.84;5052239;28;19916;-77
2022/06/21 11:11:06;;;;;;;;;;;;;;;25.99;36.42;101629.44;5055228;28;19995;-77
2022/06/21 11:13:44;;;;;;;;;;;;;;;26.11;36.45;101630.41;5077175;28;19912;-77
2022/06/21 11:16:19;;;;;;;;;;;;;;;26.20;36.98;101623.41;5069900;28;19931;-77
2022/06/21 11:19:06;;;;;;;;;;;;;;;26.21;37.20;101633.31;5062732;28;19912;-77
2022/06/21 11:21:42;;;;;;;;;;;;;;;26.43;36.92;101623.53;5065298;28;19923;-77
2022/06/21 11:32:12;;;;;;;;;;;;;;;26.14;34.53;101619.31;5088158;28;19912;-76
2022/06/21 11:34:44;;;;;;;;;;;;;;;26.23;35.10;101615.06;5085349;28;19920;-76
2022/06/21 11:37:30;;;;;;;;;;;;;;;26.15;36.34;101626.47;5076613;28;19966;-76
2022/06/21 11:40:16;;;;;;;;;;;;;;;26.09;35.47;101626.06;5079235;28;19922;-76
2022/06/21 11:42:51;;;;;;;;;;;;;;;26.19;36.75;101623.53;5067903;28;20043;-76
2022/06/21 11:45:25;;;;;;;;;;;;;;;26.22;36.09;101620.56;5071024;28;20428;-76
2022/06/21 11:48:07;;;;;;;;;;;;;;;26.13;35.79;101614.88;5082743;28;19935;-75
2022/06/21 11:50:53;;;;;;;;;;;;;;;26.30;36.88;101596.44;5080636;28;19921;-76
2022/06/21 11:53:28;;;;;;;;;;;;;;;26.43;35.47;101599.97;5069409;28;19917;-76
2022/06/21 11:55:59;;;;;;;;;;;;;;;26.54;35.95;101610.00;5075130;28;20406;-76
2022/06/21 11:58:35;;;;;;;;;;;;;;;26.53;32.86;101601.97;5083309;28;19921;-76
2022/06/21 12:01:08;;;;;;;;;;;;;;;26.46;35.40;101597.00;5071206;28;19927;-76
2022/06/21 12:06:33;;;;;;;;;;;;;;;26.50;35.56;101594.94;5073266;28;19970;-75
2022/06/21 12:09:19;;;;;;;;;;;;;;;26.61;35.99;101585.97;5051242;28;19918;-75
2022/06/21 12:12:05;;;;;;;;;;;;;;;26.63;34.96;101578.53;5042033;28;19921;-75
2022/06/21 12:17:20;;;;;;;;;;;;;;;26.68;34.58;101572.75;5046149;28;20410;-76
2022/06/21 12:19:49;;;;;;;;;;;;;;;26.72;35.06;101580.56;5046782;28;19917;-76
2022/06/21 12:22:35;;;;;;;;;;;;;;;26.75;34.86;101574.06;5041309;28;20350;-76
2022/06/21 12:25:01;;;;;;;;;;;;;;;26.82;34.17;101582.59;5041092;28;19936;-76
2022/06/21 12:27:27;;;;;;;;;;;;;;;26.72;33.93;101569.69;5039906;28;19960;-75
2022/06/21 12:29:58;;;;;;;;;;;;;;;26.75;32.30;101566.75;5038182;28;19971;-76
2022/06/21 12:32:25;;;;;;;;;;;;;;;26.83;35.39;101562.56;5039093;28;20048;-75
2022/06/21 12:35:00;;;;;;;;;;;;;;;26.85;32.58;101566.06;5041232;28;19943;-75
2022/06/21 12:37:32;;;;;;;;;;;;;;;26.79;35.45;101553.78;5035308;28;19921;-75
2022/06/21 12:40:04;;;;;;;;;;;;;;;26.90;34.68;101561.13;5035346;28;19917;-75
2022/06/21 12:45:29;;;;;;;;;;;;;;;27.07;35.27;101560.66;5094719;27;19916;-79
2022/06/21 12:50:38;;;;;;;;;;;;;;;27.12;34.25;101553.00;5087429;27;1901662;-76
2022/06/21 12:53:24;;;;;;;;;;;;;;;27.18;33.87;101558.94;5138002;27;19916;-75
2022/06/21 12:56:01;;;;;;;;;;;;;;;27.12;33.90;101544.84;5129041;27;19916;-76
2022/06/21 12:58:46;;;;;;;;;;;;;;;27.09;32.24;101536.06;5135604;27;19922;-76
2022/06/21 13:01:17;;;;;;;;;;;;;;;27.27;32.80;101542.75;5138599;27;19960;-76
2022/06/21 13:04:00;;;;;;;;;;;;;;;27.38;34.74;101539.16;5137708;27;21479;-76
2022/06/21 13:06:39;;;;;;;;;;;;;;;27.57;33.91;101537.72;5138097;27;19945;-76
2022/06/21 13:09:25;;;;;;;;;;;;;;;27.81;32.33;101542.13;5131999;27;19976;-76
2022/06/21 13:17:46;;;;;;;;;;;;;;;28.03;33.51;101536.63;5093869;27;19940;-79
2022/06/21 13:20:21;;;;;;;;;;;;;;;28.23;32.68;101534.97;5089945;28;19920;-79
2022/06/21 13:28:19;;;;;;;;;;;;;;;28.35;33.24;101533.09;5092510;27;19928;-76
2022/06/21 13:36:20;;;;;;;;;;;;;;;28.68;32.31;101522.19;5093117;27;19920;-77
2022/06/21 13:38:51;;;;;;;;;;;;;;;28.65;32.85;101526.00;5076240;28;19922;-78
2022/06/21 13:43:56;;;;;;;;;;;;;;;28.85;31.88;101516.13;5090290;27;19962;-78
2022/06/21 13:46:26;;;;;;;;;;;;;;;29.03;31.72;101512.75;5075721;28;19917;-78
2022/06/21 13:48:56;;;;;;;;;;;;;;;29.28;32.79;101507.84;5074147;28;19970;-79
2022/06/21 13:54:09;;;;;;;;;;;;;;;29.75;31.91;101504.59;5056971;28;19987;-76
2022/06/21 13:56:55;;;;;;;;;;;;;;;29.95;30.66;101500.91;5062331;28;20011;-76
2022/06/21 13:59:41;;;;;;;;;;;;;;;30.18;31.20;101503.34;5051986;28;20370;-76
2022/06/21 14:02:11;;;;;;;;;;;;;;;30.23;28.55;101503.78;5035638;28;19917;-77
2022/06/21 14:04:57;;;;;;;;;;;;;;;30.44;28.87;101491.84;5039472;28;19969;-77
2022/06/21 14:07:44;;;;;;;;;;;;;;;30.50;27.65;101494.03;5038057;28;20310;-77
2022/06/21 14:13:00;;;;;;;;;;;;;;;30.40;29.50;101490.41;5087666;27;20332;-76
2022/06/21 14:18:15;;;;;;;;;;;;;;;30.62;29.77;101490.13;5129915;27;19915;-76
2022/06/21 14:23:39;;;;;;;;;;;;;;;30.62;30.43;101487.41;5160380;27;20301;-76
2022/06/21 14:28:55;;;;;;;;;;;;;;;30.87;28.47;101479.56;5068586;28;19921;-76
2022/06/21 14:31:25;;;;;;;;;;;;;;;30.93;27.68;101486.28;5067743;28;19917;-76
2022/06/21 14:34:11;;;;;;;;;;;;;;;31.03;28.29;101483.53;5068192;28;19916;-77
2022/06/21 14:36:42;;;;;;;;;;;;;;;30.95;29.90;101485.13;5068211;28;19913;-76
2022/06/21 14:39:12;;;;;;;;;;;;;;;30.91;28.86;101485.59;5065296;28;20264;-76
2022/06/21 14:41:42;;;;;;;;;;;;;;;30.90;28.95;101481.97;5061526;28;20023;-76
2022/06/21 14:44:19;;;;;;;;;;;;;;;30.72;29.57;101483.75;5067907;28;19944;-77
2022/06/21 14:46:53;;;;;;;;;;;;;;;30.57;28.97;101484.25;5068267;28;19931;-76
2022/06/21 14:49:23;;;;;;;;;;;;;;;30.64;29.13;101476.31;5068050;28;20445;-76
2022/06/21 14:52:09;;;;;;;;;;;;;;;30.73;27.18;101471.81;5067352;28;19913;-76
2022/06/21 14:54:55;;;;;;;;;;;;;;;30.97;27.62;101472.16;5067873;28;19937;-76
2022/06/21 15:08:07;;;;;;;;;;;;;;;31.53;27.71;101458.53;5094849;27;20342;-80
2022/06/21 15:10:36;;;;;;;;;;;;;;;31.81;27.04;101458.50;5075551;28;20367;-80
2022/06/21 15:15:40;;;;;;;;;;;;;;;32.08;27.57;101441.13;5083940;28;19924;-78
2022/06/21 15:18:13;;;;;;;;;;;;;;;31.92;28.26;101444.56;5056099;28;19995;-79
2022/06/21 15:20:59;;;;;;;;;;;;;;;31.80;28.78;101444.97;5054368;28;19917;-76
2022/06/21 15:23:28;;;;;;;;;;;;;;;31.90;28.51;101435.69;5052253;28;19917;-78
2022/06/21 15:26:01;;;;;;;;;;;;;;;32.02;28.40;101440.91;5050676;28;20419;-78
2022/06/21 15:28:33;;;;;;;;;;;;;;;31.98;28.85;101436.75;5056230;28;20026;-79
2022/06/21 15:31:18;;;;;;;;;;;;;;;31.99;29.15;101435.72;5050660;28;20435;-78
2022/06/21 15:34:03;;;;;;;;;;;;;;;31.95;28.46;101435.19;5055779;28;19928;-78
2022/06/21 15:39:32;;;;;;;;;;;;;;;31.89;29.05;101435.81;5077285;27;19916;-77